createdAt,value
2022-09-15T02:39:58.270Z,3.85
2022-09-15T02:45:02.077Z,4.47
2022-09-15T02:50:04.778Z,4.30
2022-09-15T02:55:07.260Z,2.65
2022-09-15T03:00:13.530Z,6.30
2022-09-15T03:05:17.171Z,6.22
2022-09-15T03:10:20.204Z,9.05
2022-09-15T03:15:24.915Z,6.45
2022-09-15T03:20:28.906Z,4.85
2022-09-15T03:25:30.946Z,6.45
2022-09-15T03:30:33.161Z,3.53
2022-09-15T03:35:35.548Z,5.00
2022-09-15T03:40:38.182Z,4.38
2022-09-15T03:45:40.631Z,7.55
2022-09-15T03:50:43.130Z,8.55
2022-09-15T03:55:46.446Z,10.27
2022-09-15T04:00:49.843Z,6.65
2022-09-15T04:05:52.110Z,3.33
2022-09-15T04:10:55.362Z,5.55
2022-09-15T04:16:07.312Z,6.35
2022-09-15T04:21:14.998Z,4.00
2022-09-15T04:26:28.375Z,4.20
2022-09-15T04:31:30.824Z,8.13
2022-09-15T04:36:33.152Z,5.10
2022-09-15T04:41:35.502Z,7.72
2022-09-15T04:46:38.080Z,4.15
2022-09-15T04:51:40.602Z,10.95
2022-09-15T04:56:42.992Z,5.20
2022-09-15T05:01:45.889Z,11.15
2022-09-15T05:06:48.427Z,3.30
2022-09-15T05:11:50.655Z,6.47
2022-09-15T05:16:52.745Z,3.88
2022-09-15T05:21:54.919Z,4.45
2022-09-15T05:26:57.222Z,5.30
2022-09-15T05:31:59.477Z,4.57
2022-09-15T05:37:02.203Z,3.85
2022-09-15T05:42:04.799Z,3.95
2022-09-15T05:47:06.964Z,4.90
2022-09-15T05:52:09.115Z,4.53
2022-09-15T05:57:11.686Z,6.25
2022-09-15T06:02:14.326Z,9.32
2022-09-15T06:07:17.103Z,7.63
2022-09-15T06:12:19.466Z,5.60
2022-09-15T06:17:23.271Z,4.95
2022-09-15T06:22:25.985Z,5.50
2022-09-15T06:27:28.120Z,7.63
2022-09-15T06:32:30.550Z,3.17
2022-09-15T06:37:32.958Z,6.95
2022-09-15T06:42:35.291Z,3.55
2022-09-15T06:47:38.666Z,5.10
2022-09-15T06:52:40.743Z,5.13
2022-09-15T06:57:42.815Z,6.18
2022-09-15T07:02:45.128Z,4.03
2022-09-15T07:07:47.559Z,7.38
2022-09-15T07:12:49.858Z,6.80
2022-09-15T07:17:51.906Z,8.45
2022-09-15T07:22:54.122Z,5.20
2022-09-15T07:27:56.338Z,8.32
2022-09-15T07:32:58.658Z,4.82
2022-09-15T07:38:00.985Z,4.13
2022-09-15T07:43:07.029Z,5.13
2022-09-15T07:48:09.094Z,7.97
2022-09-15T07:53:35.206Z,6.57
2022-09-15T07:58:37.462Z,4.85
2022-09-15T08:03:42.021Z,7.80
2022-09-15T08:08:44.414Z,7.38
2022-09-15T08:13:53.772Z,8.52
2022-09-15T08:18:57.260Z,3.45
2022-09-15T08:24:01.594Z,5.07
2022-09-15T08:29:04.121Z,9.23
2022-09-15T08:34:07.209Z,7.70
2022-09-15T08:39:09.604Z,14.38
2022-09-15T08:44:30.476Z,5.78
2022-09-15T08:49:57.090Z,8.40
2022-09-15T08:55:11.588Z,10.43
2022-09-15T09:00:20.382Z,7.10
2022-09-15T09:10:57.013Z,9.23
2022-09-15T09:16:23.083Z,8.65
2022-09-15T09:21:31.781Z,8.00
2022-09-15T09:26:36.901Z,7.28
2022-09-15T09:31:41.142Z,7.95
2022-09-15T09:36:43.594Z,8.90
2022-09-15T09:41:45.879Z,9.30
2022-09-15T09:46:49.497Z,8.77
2022-09-15T09:51:55.868Z,10.77
2022-09-15T09:57:22.766Z,11.52
2022-09-15T10:02:29.094Z,8.30
2022-09-15T10:07:33.983Z,9.30
2022-09-15T10:12:42.077Z,10.02
2022-09-15T10:17:48.734Z,7.80
2022-09-15T10:22:51.839Z,6.82
2022-09-15T10:28:11.365Z,6.53
2022-09-15T10:33:42.114Z,16.20
2022-09-15T10:38:52.400Z,10.80
2022-09-15T10:44:25.619Z,15.02
2022-09-15T10:49:45.892Z,6.47
2022-09-15T10:55:16.447Z,11.98
2022-09-15T11:00:25.905Z,11.05
2022-09-15T11:05:40.382Z,12.52
2022-09-15T11:10:54.064Z,13.68
2022-09-15T11:16:18.312Z,10.77
2022-09-15T11:21:32.922Z,8.73
2022-09-15T11:26:43.563Z,12.68
2022-09-15T11:31:51.679Z,11.98
2022-09-15T11:37:15.413Z,19.25
2022-09-15T11:42:35.105Z,24.15
2022-09-15T11:47:42.726Z,11.80
2022-09-15T11:52:52.443Z,25.20
2022-09-15T11:58:03.922Z,10.82
2022-09-15T12:03:18.401Z,14.57
2022-09-15T12:08:34.330Z,12.48
2022-09-15T12:13:37.345Z,14.48
2022-09-15T12:18:58.134Z,10.20
2022-09-15T12:24:34.065Z,20.45
2022-09-15T12:29:42.131Z,15.43
2022-09-15T12:35:01.711Z,14.10
2022-09-15T12:40:07.888Z,15.95
2022-09-15T12:45:25.551Z,13.80
2022-09-15T12:50:47.021Z,15.60
2022-09-15T12:55:55.723Z,13.73
2022-09-15T13:01:19.778Z,12.85
2022-09-15T13:06:27.201Z,14.35
2022-09-15T13:11:38.749Z,13.45
2022-09-15T13:16:41.944Z,11.25
2022-09-15T13:22:06.798Z,11.25
2022-09-15T13:27:10.457Z,17.58
2022-09-15T13:32:32.016Z,9.82
2022-09-15T13:38:20.052Z,12.98
2022-09-15T13:43:59.722Z,12.65
2022-09-15T13:49:20.306Z,10.45
2022-09-15T13:54:22.700Z,19.50
2022-09-15T13:59:30.281Z,10.00
2022-09-15T14:04:32.738Z,12.32
2022-09-15T14:09:45.344Z,10.75
2022-09-15T14:14:53.993Z,8.95
2022-09-15T14:20:30.449Z,11.98
2022-09-15T14:25:35.765Z,14.02
2022-09-15T14:30:44.616Z,17.95
2022-09-15T14:35:47.687Z,20.48
2022-09-15T14:40:57.148Z,10.35
2022-09-15T14:46:15.973Z,13.15
2022-09-15T14:51:24.854Z,10.85
2022-09-15T14:56:33.209Z,12.95
2022-09-15T15:01:37.491Z,10.70
2022-09-15T15:12:38.910Z,17.67
2022-09-15T15:17:57.808Z,12.50
2022-09-15T15:23:21.259Z,27.13
2022-09-15T15:28:36.832Z,39.50
2022-09-15T15:33:49.577Z,35.92
2022-09-15T15:38:54.900Z,30.25
2022-09-15T15:44:17.539Z,20.83
2022-09-15T15:49:26.533Z,11.52
2022-09-15T15:54:32.575Z,12.77
2022-09-15T15:59:34.884Z,12.15
2022-09-15T16:04:36.994Z,11.30
2022-09-15T16:09:40.042Z,16.20
2022-09-15T16:14:52.281Z,17.80
2022-09-15T16:19:57.302Z,12.32
2022-09-15T16:24:59.540Z,16.67
2022-09-15T16:30:08.653Z,10.75
2022-09-15T16:35:25.053Z,14.07
2022-09-15T16:40:30.491Z,8.88
2022-09-15T16:45:39.726Z,15.85
2022-09-15T16:51:16.940Z,12.30
2022-09-15T16:56:16.663Z,12.45
2022-09-15T17:01:21.581Z,11.45
2022-09-15T17:06:24.267Z,10.35
2022-09-15T17:11:27.938Z,12.80
2022-09-15T17:16:30.090Z,14.25
2022-09-15T17:21:32.156Z,9.63
2022-09-15T17:26:34.614Z,10.13
2022-09-15T17:31:37.250Z,11.95
2022-09-15T17:36:42.208Z,12.35
2022-09-15T17:41:45.021Z,9.43
2022-09-15T17:46:47.117Z,12.73
2022-09-15T17:51:49.319Z,10.23
2022-09-15T17:56:53.702Z,13.35
2022-09-15T18:01:56.725Z,8.75
2022-09-15T18:06:59.088Z,11.30
2022-09-15T18:12:01.387Z,10.00
2022-09-15T18:17:03.539Z,10.48
2022-09-15T18:22:06.466Z,16.98
2022-09-15T18:27:09.239Z,11.93
2022-09-15T18:32:11.503Z,11.57
2022-09-15T18:37:13.976Z,21.35
2022-09-15T18:42:16.217Z,7.78
2022-09-15T18:47:18.253Z,8.13
2022-09-15T18:52:20.498Z,13.57
2022-09-15T18:57:23.022Z,22.85
2022-09-15T19:02:25.156Z,14.15
2022-09-15T19:07:28.708Z,17.08
2022-09-15T19:12:31.158Z,8.43
2022-09-15T19:17:33.627Z,9.88
2022-09-15T19:22:36.922Z,8.85
2022-09-15T19:27:40.168Z,6.43
2022-09-15T19:32:43.040Z,11.43
2022-09-15T19:37:45.624Z,29.58
2022-09-15T19:42:55.949Z,13.15
2022-09-15T19:47:59.506Z,10.52
2022-09-15T19:53:01.553Z,8.20
2022-09-15T19:58:03.664Z,11.35
2022-09-15T20:03:05.917Z,8.20
2022-09-15T20:08:08.270Z,10.38
2022-09-15T20:13:10.595Z,12.95
2022-09-15T20:18:13.588Z,7.60
2022-09-15T20:23:15.835Z,12.15
2022-09-15T20:28:17.874Z,6.78
2022-09-15T20:33:19.956Z,10.95
2022-09-15T20:38:22.084Z,8.20
2022-09-15T20:43:24.415Z,10.10
2022-09-15T20:48:29.613Z,6.28
2022-09-15T20:53:32.174Z,9.48
2022-09-15T20:58:35.821Z,8.13
2022-09-15T21:09:06.042Z,12.48
2022-09-15T21:14:08.280Z,12.00
2022-09-15T21:19:12.856Z,13.48
2022-09-15T21:24:14.927Z,10.68
2022-09-15T21:29:16.975Z,8.80
2022-09-15T21:34:19.503Z,11.40
2022-09-15T21:39:21.808Z,8.70
2022-09-15T21:44:24.223Z,9.15
2022-09-15T21:49:26.610Z,12.27
2022-09-15T21:54:28.712Z,10.48
2022-09-15T21:59:30.849Z,10.93
2022-09-15T22:04:33.129Z,7.47
2022-09-15T22:09:38.146Z,6.53
2022-09-15T22:14:40.206Z,5.10
2022-09-15T22:19:42.749Z,14.13
2022-09-15T22:24:45.313Z,6.00
2022-09-15T22:29:47.430Z,12.57
2022-09-15T23:03:33.346Z,10.13
2022-09-15T23:08:36.603Z,8.38
2022-09-15T23:13:42.033Z,11.95
2022-09-15T23:18:44.553Z,9.43
2022-09-15T23:23:49.441Z,8.40
2022-09-15T23:28:51.703Z,7.60
2022-09-15T23:33:53.879Z,11.93
2022-09-15T23:38:56.105Z,9.35
2022-09-15T23:44:00.028Z,13.00
2022-09-15T23:49:02.274Z,6.15
2022-09-15T23:54:04.987Z,7.53
2022-09-15T23:59:07.166Z,9.40
